sensor_id;sensor_type;location;lat;lon;timestamp;pressure;altitude;pressure_sealevel;temperature;humidity
55263;BME280;41125;48.752;9.168;2023-09-19T00:00:23;96502.19;;;16.08;94.17
55263;BME280;41125;48.752;9.168;2023-09-19T00:01:04;96502.53;;;16.06;94.50
55263;BME280;41125;48.752;9.168;2023-09-19T00:01:38;96507.66;;;16.08;94.60
55263;BME280;41125;48.752;9.168;2023-09-19T00:02:09;96504.47;;;16.06;95.03
55263;BME280;41125;48.752;9.168;2023-09-19T00:02:42;96504.78;;;16.04;94.71
55263;BME280;41125;48.752;9.168;2023-09-19T00:03:18;96506.41;;;16.05;94.76
55263;BME280;41125;48.752;9.168;2023-09-19T00:03:49;96504.47;;;16.06;94.90
55263;BME280;41125;48.752;9.168;2023-09-19T00:04:20;96510.28;;;16.04;95.14
55263;BME280;41125;48.752;9.168;2023-09-19T00:04:59;96502.28;;;15.99;95.38
55263;BME280;41125;48.752;9.168;2023-09-19T00:05:36;96503.75;;;15.97;95.72
55263;BME280;41125;48.752;9.168;2023-09-19T00:06:09;96505.22;;;15.94;95.83
55263;BME280;41125;48.752;9.168;2023-09-19T00:06:41;96502.84;;;15.93;96.01
55263;BME280;41125;48.752;9.168;2023-09-19T00:07:14;96509.91;;;15.94;95.81
55263;BME280;41125;48.752;9.168;2023-09-19T00:07:47;96505.91;;;15.91;96.41
55263;BME280;41125;48.752;9.168;2023-09-19T00:08:18;96502.72;;;15.89;96.44
55263;BME280;41125;48.752;9.168;2023-09-19T00:08:55;96508.19;;;15.89;96.30
55263;BME280;41125;48.752;9.168;2023-09-19T00:09:26;96508.84;;;15.86;96.10
55263;BME280;41125;48.752;9.168;2023-09-19T00:09:58;96510.44;;;15.87;96.51
55263;BME280;41125;48.752;9.168;2023-09-19T00:10:30;96518.19;;;15.85;96.75
55263;BME280;41125;48.752;9.168;2023-09-19T00:11:01;96511.59;;;15.86;96.86
55263;BME280;41125;48.752;9.168;2023-09-19T00:11:37;96517.53;;;15.88;96.88
55263;BME280;41125;48.752;9.168;2023-09-19T00:12:09;96514.78;;;15.88;96.96
55263;BME280;41125;48.752;9.168;2023-09-19T00:12:43;96523.47;;;15.90;96.77
55263;BME280;41125;48.752;9.168;2023-09-19T00:13:14;96523.00;;;15.88;97.19
55263;BME280;41125;48.752;9.168;2023-09-19T00:13:51;96527.66;;;15.88;96.88
55263;BME280;41125;48.752;9.168;2023-09-19T00:14:25;96522.19;;;15.88;97.12
55263;BME280;41125;48.752;9.168;2023-09-19T00:14:56;96526.88;;;15.87;96.93
55263;BME280;41125;48.752;9.168;2023-09-19T00:15:28;96527.53;;;15.84;97.30
55263;BME280;41125;48.752;9.168;2023-09-19T00:16:10;96524.31;;;15.82;97.16
55263;BME280;41125;48.752;9.168;2023-09-19T00:16:42;96527.06;;;15.82;97.40
55263;BME280;41125;48.752;9.168;2023-09-19T00:17:13;96521.12;;;15.80;97.07
55263;BME280;41125;48.752;9.168;2023-09-19T00:17:46;96524.00;;;15.84;97.24
55263;BME280;41125;48.752;9.168;2023-09-19T00:18:19;96522.31;;;15.91;96.73
55263;BME280;41125;48.752;9.168;2023-09-19T00:18:55;96529.41;;;15.92;96.59
55263;BME280;41125;48.752;9.168;2023-09-19T00:19:26;96525.53;;;15.93;96.45
55263;BME280;41125;48.752;9.168;2023-09-19T00:19:58;96531.66;;;15.90;97.06
55263;BME280;41125;48.752;9.168;2023-09-19T00:20:29;96530.88;;;15.90;96.70
55263;BME280;41125;48.752;9.168;2023-09-19T00:21:01;96528.94;;;15.90;96.96
55263;BME280;41125;48.752;9.168;2023-09-19T00:21:33;96521.06;;;15.89;96.61
55263;BME280;41125;48.752;9.168;2023-09-19T00:22:04;96526.06;;;15.87;96.65
55263;BME280;41125;48.752;9.168;2023-09-19T00:22:39;96521.41;;;15.87;96.88
55263;BME280;41125;48.752;9.168;2023-09-19T00:23:11;96531.53;;;15.87;97.30
55263;BME280;41125;48.752;9.168;2023-09-19T00:23:42;96526.41;;;15.85;96.92
55263;BME280;41125;48.752;9.168;2023-09-19T00:24:13;96530.72;;;15.86;97.39
55263;BME280;41125;48.752;9.168;2023-09-19T00:24:44;96522.88;;;15.85;97.14
55263;BME280;41125;48.752;9.168;2023-09-19T00:25:16;96525.94;;;15.83;97.48
55263;BME280;41125;48.752;9.168;2023-09-19T00:25:48;96522.72;;;15.81;97.77
55263;BME280;41125;48.752;9.168;2023-09-19T00:26:22;96521.94;;;15.81;97.90
55263;BME280;41125;48.752;9.168;2023-09-19T00:26:53;96526.59;;;15.80;97.89
55263;BME280;41125;48.752;9.168;2023-09-19T00:27:26;96520.53;;;15.74;97.94
55263;BME280;41125;48.752;9.168;2023-09-19T00:27:59;96520.06;;;15.72;98.45
55263;BME280;41125;48.752;9.168;2023-09-19T00:28:30;96526.34;;;15.73;98.76
55263;BME280;41125;48.752;9.168;2023-09-19T00:29:02;96525.53;;;15.72;98.24
55263;BME280;41125;48.752;9.168;2023-09-19T00:29:34;96520.88;;;15.73;98.39
55263;BME280;41125;48.752;9.168;2023-09-19T00:30:07;96527.94;;;15.74;98.46
55263;BME280;41125;48.752;9.168;2023-09-19T00:30:46;96521.66;;;15.73;98.56
55263;BME280;41125;48.752;9.168;2023-09-19T00:31:22;96522.47;;;15.74;98.28
55263;BME280;41125;48.752;9.168;2023-09-19T00:31:56;96515.19;;;15.78;98.22
55263;BME280;41125;48.752;9.168;2023-09-19T00:32:30;96525.00;;;15.79;97.68
55263;BME280;41125;48.752;9.168;2023-09-19T00:33:01;96525.25;;;15.86;97.09
55263;BME280;41125;48.752;9.168;2023-09-19T00:33:36;96526.88;;;15.87;96.62
55263;BME280;41125;48.752;9.168;2023-09-19T00:34:08;96533.00;;;15.84;96.71
55263;BME280;41125;48.752;9.168;2023-09-19T00:34:41;96531.28;;;15.80;96.87
55263;BME280;41125;48.752;9.168;2023-09-19T00:35:14;96526.47;;;15.77;97.10
55263;BME280;41125;48.752;9.168;2023-09-19T00:35:51;96521.78;;;15.77;97.20
55263;BME280;41125;48.752;9.168;2023-09-19T00:36:24;96533.41;;;15.74;98.17
55263;BME280;41125;48.752;9.168;2023-09-19T00:36:55;96528.13;;;15.69;98.12
55263;BME280;41125;48.752;9.168;2023-09-19T00:37:26;96533.13;;;15.67;98.50
55263;BME280;41125;48.752;9.168;2023-09-19T00:37:57;96527.00;;;15.70;98.03
55263;BME280;41125;48.752;9.168;2023-09-19T00:38:32;96535.53;;;15.68;98.33
55263;BME280;41125;48.752;9.168;2023-09-19T00:39:04;96522.59;;;15.78;97.94
55263;BME280;41125;48.752;9.168;2023-09-19T00:39:36;96530.28;;;15.84;97.18
55263;BME280;41125;48.752;9.168;2023-09-19T00:40:09;96528.34;;;15.85;96.46
55263;BME280;41125;48.752;9.168;2023-09-19T00:40:46;96526.59;;;15.80;97.05
55263;BME280;41125;48.752;9.168;2023-09-19T00:41:17;96531.13;;;15.76;97.58
55263;BME280;41125;48.752;9.168;2023-09-19T00:41:49;96531.13;;;15.76;97.32
55263;BME280;41125;48.752;9.168;2023-09-19T00:42:21;96530.66;;;15.74;97.18
55263;BME280;41125;48.752;9.168;2023-09-19T00:42:57;96527.00;;;15.70;97.74
55263;BME280;41125;48.752;9.168;2023-09-19T00:43:32;96534.72;;;15.68;98.12
55263;BME280;41125;48.752;9.168;2023-09-19T00:44:07;96534.28;;;15.66;98.18
55263;BME280;41125;48.752;9.168;2023-09-19T00:44:38;96530.72;;;15.65;98.07
55263;BME280;41125;48.752;9.168;2023-09-19T00:45:12;96532.66;;;15.65;98.51
55263;BME280;41125;48.752;9.168;2023-09-19T00:45:48;96538.13;;;15.65;98.41
55263;BME280;41125;48.752;9.168;2023-09-19T00:46:23;96537.00;;;15.66;98.63
55263;BME280;41125;48.752;9.168;2023-09-19T00:46:54;96537.00;;;15.66;98.58
55263;BME280;41125;48.752;9.168;2023-09-19T00:47:28;96543.94;;;15.63;98.76
55263;BME280;41125;48.752;9.168;2023-09-19T00:48:02;96533.34;;;15.62;98.79
55263;BME280;41125;48.752;9.168;2023-09-19T00:48:40;96535.25;;;15.61;98.76
55263;BME280;41125;48.752;9.168;2023-09-19T00:49:14;96531.06;;;15.64;98.62
55263;BME280;41125;48.752;9.168;2023-09-19T00:49:46;96536.66;;;15.67;98.38
55263;BME280;41125;48.752;9.168;2023-09-19T00:50:24;96537.47;;;15.68;98.75
55263;BME280;41125;48.752;9.168;2023-09-19T00:50:59;96542.47;;;15.66;98.60
55263;BME280;41125;48.752;9.168;2023-09-19T00:51:34;96529.94;;;15.65;98.93
55263;BME280;41125;48.752;9.168;2023-09-19T00:52:07;96538.47;;;15.63;98.97
55263;BME280;41125;48.752;9.168;2023-09-19T00:52:42;96539.75;;;15.66;98.73
55263;BME280;41125;48.752;9.168;2023-09-19T00:53:17;96539.75;;;15.66;98.53
55263;BME280;41125;48.752;9.168;2023-09-19T00:53:49;96534.72;;;15.68;97.99
55263;BME280;41125;48.752;9.168;2023-09-19T00:54:21;96543.41;;;15.70;98.21
55263;BME280;41125;48.752;9.168;2023-09-19T00:54:53;96543.41;;;15.70;97.99
55263;BME280;41125;48.752;9.168;2023-09-19T00:55:25;96548.87;;;15.70;98.02
55263;BME280;41125;48.752;9.168;2023-09-19T00:55:57;96539.88;;;15.69;98.08
55263;BME280;41125;48.752;9.168;2023-09-19T00:56:28;96546.63;;;15.72;97.76
55263;BME280;41125;48.752;9.168;2023-09-19T00:56:59;96545.00;;;15.71;97.40
55263;BME280;41125;48.752;9.168;2023-09-19T00:57:31;96550.47;;;15.71;97.61
55263;BME280;41125;48.752;9.168;2023-09-19T00:58:04;96552.09;;;15.72;97.45
55263;BME280;41125;48.752;9.168;2023-09-19T00:58:38;96546.81;;;15.67;97.58
55263;BME280;41125;48.752;9.168;2023-09-19T00:59:11;96558.22;;;15.69;97.67
55263;BME280;41125;48.752;9.168;2023-09-19T00:59:42;96550.00;;;15.69;97.57
55263;BME280;41125;48.752;9.168;2023-09-19T01:00:15;96560.62;;;15.70;97.79
55263;BME280;41125;48.752;9.168;2023-09-19T01:00:48;96555.16;;;15.70;98.26
55263;BME280;41125;48.752;9.168;2023-09-19T01:01:21;96545.00;;;15.71;97.94
55263;BME280;41125;48.752;9.168;2023-09-19T01:01:53;96548.87;;;15.70;98.12
55263;BME280;41125;48.752;9.168;2023-09-19T01:02:26;96549.22;;;15.68;98.48
55263;BME280;41125;48.752;9.168;2023-09-19T01:03:00;96551.16;;;15.68;98.41
55263;BME280;41125;48.752;9.168;2023-09-19T01:03:34;96551.16;;;15.68;98.21
55263;BME280;41125;48.752;9.168;2023-09-19T01:04:06;96549.53;;;15.67;98.37
55263;BME280;41125;48.752;9.168;2023-09-19T01:04:37;96554.22;;;15.66;98.01
55263;BME280;41125;48.752;9.168;2023-09-19T01:05:10;96551.81;;;15.65;98.29
55263;BME280;41125;48.752;9.168;2023-09-19T01:05:42;96546.34;;;15.65;98.02
55263;BME280;41125;48.752;9.168;2023-09-19T01:06:14;96555.00;;;15.67;98.14
55263;BME280;41125;48.752;9.168;2023-09-19T01:06:46;96544.06;;;15.67;97.87
55263;BME280;41125;48.752;9.168;2023-09-19T01:07:24;96549.53;;;15.67;98.09
55263;BME280;41125;48.752;9.168;2023-09-19T01:07:55;96551.81;;;15.65;98.25
55263;BME280;41125;48.752;9.168;2023-09-19T01:08:27;96545.53;;;15.64;98.92
55263;BME280;41125;48.752;9.168;2023-09-19T01:09:01;96551.81;;;15.65;98.89
55263;BME280;41125;48.752;9.168;2023-09-19T01:09:35;96550.22;;;15.64;99.06
55263;BME280;41125;48.752;9.168;2023-09-19T01:10:08;96545.88;;;15.63;98.61
55263;BME280;41125;48.752;9.168;2023-09-19T01:10:52;96551.81;;;15.65;98.77
55263;BME280;41125;48.752;9.168;2023-09-19T01:11:38;96552.94;;;15.64;98.53
55263;BME280;41125;48.752;9.168;2023-09-19T01:12:17;96548.59;;;15.63;98.88
55263;BME280;41125;48.752;9.168;2023-09-19T01:14:34;96551.22;;;15.59;98.97
55263;BME280;41125;48.752;9.168;2023-09-19T01:15:24;96550.59;;;15.54;98.77
55263;BME280;41125;48.752;9.168;2023-09-19T01:16:07;96555.44;;;15.57;98.93
55263;BME280;41125;48.752;9.168;2023-09-19T01:16:53;96549.97;;;15.57;98.58
55263;BME280;41125;48.752;9.168;2023-09-19T01:17:51;96555.44;;;15.57;98.40
55263;BME280;41125;48.752;9.168;2023-09-19T01:18:54;96547.53;;;15.55;98.43
55263;BME280;41125;48.752;9.168;2023-09-19T01:20:02;96553.81;;;15.56;98.94
55263;BME280;41125;48.752;9.168;2023-09-19T01:22:05;96546.25;;;15.53;99.09
55263;BME280;41125;48.752;9.168;2023-09-19T01:23:11;96546.59;;;15.51;98.82
55263;BME280;41125;48.752;9.168;2023-09-19T01:24:33;96552.88;;;15.52;98.92
55263;BME280;41125;48.752;9.168;2023-09-19T01:25:50;96549.78;;;15.53;98.56
55263;BME280;41125;48.752;9.168;2023-09-19T01:27:02;96548.34;;;15.56;98.15
55263;BME280;41125;48.752;9.168;2023-09-19T01:28:39;96554.94;;;15.55;97.91
55263;BME280;41125;48.752;9.168;2023-09-19T01:29:46;96557.66;;;15.55;97.69
55263;BME280;41125;48.752;9.168;2023-09-19T01:30:22;96549.47;;;15.55;97.53
55263;BME280;41125;48.752;9.168;2023-09-19T01:30:59;96563.13;;;15.55;97.70
55263;BME280;41125;48.752;9.168;2023-09-19T01:31:34;96559.28;;;15.56;97.47
55263;BME280;41125;48.752;9.168;2023-09-19T01:32:10;96558.16;;;15.57;97.65
55263;BME280;41125;48.752;9.168;2023-09-19T01:32:44;96567.19;;;15.57;97.32
55263;BME280;41125;48.752;9.168;2023-09-19T01:33:17;96564.09;;;15.59;97.12
55263;BME280;41125;48.752;9.168;2023-09-19T01:34:00;96568.41;;;15.60;97.00
55263;BME280;41125;48.752;9.168;2023-09-19T01:35:03;96561.16;;;15.64;96.99
55263;BME280;41125;48.752;9.168;2023-09-19T01:35:35;96567.09;;;15.66;96.64
55263;BME280;41125;48.752;9.168;2023-09-19T01:36:09;96559.53;;;15.63;96.11
55263;BME280;41125;48.752;9.168;2023-09-19T01:36:44;96564.34;;;15.66;96.25
55263;BME280;41125;48.752;9.168;2023-09-19T01:37:17;96566.75;;;15.67;96.26
55263;BME280;41125;48.752;9.168;2023-09-19T01:37:51;96563.69;;;15.69;96.09
55263;BME280;41125;48.752;9.168;2023-09-19T01:38:24;96565.28;;;15.70;96.06
55263;BME280;41125;48.752;9.168;2023-09-19T01:38:58;96565.28;;;15.70;95.74
55263;BME280;41125;48.752;9.168;2023-09-19T01:39:36;96565.28;;;15.70;95.68
55263;BME280;41125;48.752;9.168;2023-09-19T01:40:14;96572.38;;;15.71;95.21
55263;BME280;41125;48.752;9.168;2023-09-19T01:41:00;96568.16;;;15.73;95.35
55263;BME280;41125;48.752;9.168;2023-09-19T01:41:58;96575.03;;;15.80;94.23
55263;BME280;41125;48.752;9.168;2023-09-19T01:42:44;96563.56;;;15.86;93.41
55263;BME280;41125;48.752;9.168;2023-09-19T01:43:30;96565.97;;;15.88;92.90
55263;BME280;41125;48.752;9.168;2023-09-19T01:44:06;96572.25;;;15.88;92.73
55263;BME280;41125;48.752;9.168;2023-09-19T01:44:59;96578.19;;;15.90;92.75
55263;BME280;41125;48.752;9.168;2023-09-19T01:46:18;96576.34;;;15.94;91.96
55263;BME280;41125;48.752;9.168;2023-09-19T01:46:50;96578.75;;;15.96;91.79
55263;BME280;41125;48.752;9.168;2023-09-19T01:47:43;96583.00;;;15.93;92.32
55263;BME280;41125;48.752;9.168;2023-09-19T01:49:02;96577.56;;;15.85;92.34
55263;BME280;41125;48.752;9.168;2023-09-19T01:49:50;96580.66;;;15.83;92.87
55263;BME280;41125;48.752;9.168;2023-09-19T01:50:38;96577.09;;;15.83;92.68
55263;BME280;41125;48.752;9.168;2023-09-19T01:51:26;96577.44;;;15.81;92.87
55263;BME280;41125;48.752;9.168;2023-09-19T01:52:13;96577.44;;;15.81;92.71
55263;BME280;41125;48.752;9.168;2023-09-19T01:52:51;96578.25;;;15.82;92.71
55263;BME280;41125;48.752;9.168;2023-09-19T01:53:51;96581.44;;;15.84;92.00
55263;BME280;41125;48.752;9.168;2023-09-19T01:54:33;96579.19;;;15.86;92.25
55263;BME280;41125;48.752;9.168;2023-09-19T01:55:09;96575.97;;;15.84;91.79
55263;BME280;41125;48.752;9.168;2023-09-19T01:55:47;96575.19;;;15.83;92.26
55263;BME280;41125;48.752;9.168;2023-09-19T01:56:34;96576.13;;;15.87;92.02
55263;BME280;41125;48.752;9.168;2023-09-19T01:57:24;96571.78;;;15.86;91.95
55263;BME280;41125;48.752;9.168;2023-09-19T01:59:17;96585.44;;;16.07;89.43
55263;BME280;41125;48.752;9.168;2023-09-19T01:59:59;96581.41;;;16.04;90.01
55263;BME280;41125;48.752;9.168;2023-09-19T02:00:38;96583.69;;;16.02;89.96
55263;BME280;41125;48.752;9.168;2023-09-19T02:01:19;96583.50;;;16.07;89.35
55263;BME280;41125;48.752;9.168;2023-09-19T02:01:54;96584.63;;;16.06;89.46
55263;BME280;41125;48.752;9.168;2023-09-19T02:02:26;96590.75;;;16.03;89.57
55263;BME280;41125;48.752;9.168;2023-09-19T02:03:03;96587.56;;;16.01;90.12
55263;BME280;41125;48.752;9.168;2023-09-19T02:03:36;96584.34;;;15.99;89.92
55263;BME280;41125;48.752;9.168;2023-09-19T02:04:09;96589.84;;;15.99;89.96
55263;BME280;41125;48.752;9.168;2023-09-19T02:04:41;96593.69;;;15.98;89.88
55263;BME280;41125;48.752;9.168;2023-09-19T02:05:25;96587.44;;;15.98;89.82
55263;BME280;41125;48.752;9.168;2023-09-19T02:05:57;96589.38;;;15.97;90.07
55263;BME280;41125;48.752;9.168;2023-09-19T02:06:28;96588.91;;;15.95;90.11
55263;BME280;41125;48.752;9.168;2023-09-19T02:06:59;96593.47;;;15.91;90.19
55263;BME280;41125;48.752;9.168;2023-09-19T02:07:38;96595.41;;;15.91;90.83
55263;BME280;41125;48.752;9.168;2023-09-19T02:08:10;96591.88;;;15.90;90.82
55263;BME280;41125;48.752;9.168;2023-09-19T02:08:41;96593.00;;;15.89;90.64
55263;BME280;41125;48.752;9.168;2023-09-19T02:09:15;96590.25;;;15.89;91.13
55263;BME280;41125;48.752;9.168;2023-09-19T02:09:47;96592.53;;;15.87;91.01
55263;BME280;41125;48.752;9.168;2023-09-19T02:10:19;96593.19;;;15.84;91.03
55263;BME280;41125;48.752;9.168;2023-09-19T02:10:51;96592.06;;;15.85;91.23
55263;BME280;41125;48.752;9.168;2023-09-19T02:11:24;96594.78;;;15.85;91.45
55263;BME280;41125;48.752;9.168;2023-09-19T02:11:55;96594.47;;;15.87;91.57
55263;BME280;41125;48.752;9.168;2023-09-19T02:12:27;96587.06;;;15.87;90.81
55263;BME280;41125;48.752;9.168;2023-09-19T02:13:01;96605.53;;;15.90;91.12
55263;BME280;41125;48.752;9.168;2023-09-19T02:13:35;96595.25;;;15.87;90.54
55263;BME280;41125;48.752;9.168;2023-09-19T02:14:06;96594.78;;;15.85;91.03
55263;BME280;41125;48.752;9.168;2023-09-19T02:14:39;96598.00;;;15.87;91.07
55263;BME280;41125;48.752;9.168;2023-09-19T02:15:11;96593.19;;;15.84;91.29
55263;BME280;41125;48.752;9.168;2023-09-19T02:15:42;96597.88;;;15.84;91.17
55263;BME280;41125;48.752;9.168;2023-09-19T02:16:17;96597.06;;;15.83;91.72
55263;BME280;41125;48.752;9.168;2023-09-19T02:16:54;96600.94;;;15.82;91.29
55263;BME280;41125;48.752;9.168;2023-09-19T02:17:29;96597.72;;;15.80;91.58
55263;BME280;41125;48.752;9.168;2023-09-19T02:18:02;96605.47;;;15.78;91.41
55263;BME280;41125;48.752;9.168;2023-09-19T02:18:34;96598.38;;;15.77;91.53
55263;BME280;41125;48.752;9.168;2023-09-19T02:19:08;96593.72;;;15.78;91.67
55263;BME280;41125;48.752;9.168;2023-09-19T02:19:39;96593.72;;;15.78;91.70
55263;BME280;41125;48.752;9.168;2023-09-19T02:20:12;96597.72;;;15.80;91.65
55263;BME280;41125;48.752;9.168;2023-09-19T02:20:45;96598.53;;;15.81;91.55
55263;BME280;41125;48.752;9.168;2023-09-19T02:21:20;96593.53;;;15.83;91.88
55263;BME280;41125;48.752;9.168;2023-09-19T02:21:52;96598.00;;;15.87;91.31
55263;BME280;41125;48.752;9.168;2023-09-19T02:22:24;96595.59;;;15.86;90.80
55263;BME280;41125;48.752;9.168;2023-09-19T02:22:55;96593.19;;;15.84;91.38
55263;BME280;41125;48.752;9.168;2023-09-19T02:23:27;96596.13;;;15.79;91.93
55263;BME280;41125;48.752;9.168;2023-09-19T02:23:59;96597.59;;;15.77;92.15
55263;BME280;41125;48.752;9.168;2023-09-19T02:24:31;96590.84;;;15.74;91.88
55263;BME280;41125;48.752;9.168;2023-09-19T02:25:03;96596.66;;;15.72;92.34
55263;BME280;41125;48.752;9.168;2023-09-19T02:25:35;96598.12;;;15.70;92.31
55263;BME280;41125;48.752;9.168;2023-09-19T02:26:07;96604.38;;;15.70;92.64
55263;BME280;41125;48.752;9.168;2023-09-19T02:26:38;96603.91;;;15.68;92.79
55263;BME280;41125;48.752;9.168;2023-09-19T02:27:10;96601.97;;;15.69;92.94
55263;BME280;41125;48.752;9.168;2023-09-19T02:27:43;96599.25;;;15.69;93.00
55263;BME280;41125;48.752;9.168;2023-09-19T02:28:15;96607.44;;;15.69;93.34
55263;BME280;41125;48.752;9.168;2023-09-19T02:28:46;96597.31;;;15.69;93.06
55263;BME280;41125;48.752;9.168;2023-09-19T02:29:17;96600.38;;;15.68;93.26
55263;BME280;41125;48.752;9.168;2023-09-19T02:29:48;96599.91;;;15.66;93.02
55263;BME280;41125;48.752;9.168;2023-09-19T02:30:20;96605.03;;;15.67;93.20
55263;BME280;41125;48.752;9.168;2023-09-19T02:30:54;96604.25;;;15.67;92.93
55263;BME280;41125;48.752;9.168;2023-09-19T02:31:27;96602.31;;;15.67;93.26
55263;BME280;41125;48.752;9.168;2023-09-19T02:32:00;96607.31;;;15.65;93.00
55263;BME280;41125;48.752;9.168;2023-09-19T02:32:33;96601.50;;;15.67;93.11
55263;BME280;41125;48.752;9.168;2023-09-19T02:33:07;96601.03;;;15.65;93.07
55263;BME280;41125;48.752;9.168;2023-09-19T02:33:39;96617.44;;;15.65;93.14
55263;BME280;41125;48.752;9.168;2023-09-19T02:34:10;96610.38;;;15.64;93.58
55263;BME280;41125;48.752;9.168;2023-09-19T02:34:42;96613.59;;;15.66;93.62
55263;BME280;41125;48.752;9.168;2023-09-19T02:35:14;96609.06;;;15.70;92.55
55263;BME280;41125;48.752;9.168;2023-09-19T02:35:46;96595.38;;;15.70;92.86
55263;BME280;41125;48.752;9.168;2023-09-19T02:36:18;96604.72;;;15.69;92.52
55263;BME280;41125;48.752;9.168;2023-09-19T02:36:49;96598.78;;;15.67;92.99
55263;BME280;41125;48.752;9.168;2023-09-19T02:37:20;96604.25;;;15.67;93.11
55263;BME280;41125;48.752;9.168;2023-09-19T02:37:52;96605.03;;;15.67;93.05
55263;BME280;41125;48.752;9.168;2023-09-19T02:38:24;96606.97;;;15.67;93.46
55263;BME280;41125;48.752;9.168;2023-09-19T02:38:57;96618.25;;;15.65;93.31
55263;BME280;41125;48.752;9.168;2023-09-19T02:39:28;96616.66;;;15.64;93.23
55263;BME280;41125;48.752;9.168;2023-09-19T02:39:59;96609.72;;;15.67;93.45
55263;BME280;41125;48.752;9.168;2023-09-19T02:40:30;96612.44;;;15.67;92.77
55263;BME280;41125;48.752;9.168;2023-09-19T02:41:06;96611.97;;;15.65;93.13
55263;BME280;41125;48.752;9.168;2023-09-19T02:41:37;96601.03;;;15.65;93.26
55263;BME280;41125;48.752;9.168;2023-09-19T02:42:09;96598.62;;;15.63;93.46
55263;BME280;41125;48.752;9.168;2023-09-19T02:42:42;96607.16;;;15.62;93.10
55263;BME280;41125;48.752;9.168;2023-09-19T02:43:13;96605.94;;;15.59;93.55
55263;BME280;41125;48.752;9.168;2023-09-19T02:43:44;96609.00;;;15.58;93.41
55263;BME280;41125;48.752;9.168;2023-09-19T02:44:20;96604.66;;;15.57;93.45
55263;BME280;41125;48.752;9.168;2023-09-19T02:44:51;96610.13;;;15.57;93.71
55263;BME280;41125;48.752;9.168;2023-09-19T02:45:22;96615.25;;;15.58;93.50
55263;BME280;41125;48.752;9.168;2023-09-19T02:45:54;96606.25;;;15.58;93.44
55263;BME280;41125;48.752;9.168;2023-09-19T02:46:26;96603.84;;;15.56;93.86
55263;BME280;41125;48.752;9.168;2023-09-19T02:46:57;96604.16;;;15.55;93.60
55263;BME280;41125;48.752;9.168;2023-09-19T02:47:30;96615.75;;;15.52;93.63
55263;BME280;41125;48.752;9.168;2023-09-19T02:48:03;96614.00;;;15.47;94.07
55263;BME280;41125;48.752;9.168;2023-09-19T02:48:35;96612.41;;;15.46;94.22
55263;BME280;41125;48.752;9.168;2023-09-19T02:49:10;96614.34;;;15.46;94.16
55263;BME280;41125;48.752;9.168;2023-09-19T02:49:42;96615.47;;;15.45;94.44
55263;BME280;41125;48.752;9.168;2023-09-19T02:50:14;96609.53;;;15.42;94.69
55263;BME280;41125;48.752;9.168;2023-09-19T02:50:53;96618.84;;;15.41;94.82
55263;BME280;41125;48.752;9.168;2023-09-19T02:51:25;96618.38;;;15.39;94.52
55263;BME280;41125;48.752;9.168;2023-09-19T02:51:57;96619.50;;;15.38;94.73
55263;BME280;41125;48.752;9.168;2023-09-19T02:52:30;96617.91;;;15.37;94.90
55263;BME280;41125;48.752;9.168;2023-09-19T02:53:01;96619.03;;;15.36;95.12
55263;BME280;41125;48.752;9.168;2023-09-19T02:53:32;96615.50;;;15.36;95.10
55263;BME280;41125;48.752;9.168;2023-09-19T02:54:04;96621.78;;;15.36;95.58
55263;BME280;41125;48.752;9.168;2023-09-19T02:54:36;96621.78;;;15.36;95.59
55263;BME280;41125;48.752;9.168;2023-09-19T02:55:08;96617.91;;;15.37;95.52
55263;BME280;41125;48.752;9.168;2023-09-19T02:55:40;96618.72;;;15.38;95.41
55263;BME280;41125;48.752;9.168;2023-09-19T02:56:14;96620.66;;;15.37;95.58
55263;BME280;41125;48.752;9.168;2023-09-19T02:56:46;96617.91;;;15.37;95.28
55263;BME280;41125;48.752;9.168;2023-09-19T02:57:18;96627.72;;;15.38;95.35
55263;BME280;41125;48.752;9.168;2023-09-19T02:57:54;96624.19;;;15.38;95.65
55263;BME280;41125;48.752;9.168;2023-09-19T02:58:26;96621.12;;;15.39;95.63
55263;BME280;41125;48.752;9.168;2023-09-19T02:58:59;96624.97;;;15.38;95.62
55263;BME280;41125;48.752;9.168;2023-09-19T02:59:32;96626.59;;;15.39;95.41
55263;BME280;41125;48.752;9.168;2023-09-19T03:00:07;96621.59;;;15.41;95.86
55263;BME280;41125;48.752;9.168;2023-09-19T03:00:41;96617.72;;;15.42;95.61
55263;BME280;41125;48.752;9.168;2023-09-19T03:01:18;96616.59;;;15.43;95.16
55263;BME280;41125;48.752;9.168;2023-09-19T03:01:50;96623.66;;;15.45;95.29
55263;BME280;41125;48.752;9.168;2023-09-19T03:02:21;96626.41;;;15.45;95.26
55263;BME280;41125;48.752;9.168;2023-09-19T03:02:55;96625.28;;;15.46;95.73
55263;BME280;41125;48.752;9.168;2023-09-19T03:03:27;96624.47;;;15.45;95.25
55263;BME280;41125;48.752;9.168;2023-09-19T03:03:59;96628.34;;;15.44;95.73
55263;BME280;41125;48.752;9.168;2023-09-19T03:04:31;96626.72;;;15.43;95.55
55263;BME280;41125;48.752;9.168;2023-09-19T03:05:04;96631.41;;;15.42;95.60
55263;BME280;41125;48.752;9.168;2023-09-19T03:05:37;96624.31;;;15.41;95.54
55263;BME280;41125;48.752;9.168;2023-09-19T03:06:09;96627.06;;;15.41;95.84
55263;BME280;41125;48.752;9.168;2023-09-19T03:06:40;96632.53;;;15.41;96.52
55263;BME280;41125;48.752;9.168;2023-09-19T03:07:11;96632.84;;;15.40;96.17
55263;BME280;41125;48.752;9.168;2023-09-19T03:07:43;96632.06;;;15.39;96.09
55263;BME280;41125;48.752;9.168;2023-09-19T03:08:20;96624.97;;;15.38;96.16
55263;BME280;41125;48.752;9.168;2023-09-19T03:08:53;96624.97;;;15.38;96.22
55263;BME280;41125;48.752;9.168;2023-09-19T03:09:24;96628.84;;;15.37;96.69
55263;BME280;41125;48.752;9.168;2023-09-19T03:09:55;96627.72;;;15.38;96.37
55263;BME280;41125;48.752;9.168;2023-09-19T03:10:27;96631.25;;;15.39;96.77
55263;BME280;41125;48.752;9.168;2023-09-19T03:11:05;96630.59;;;15.42;96.47
55263;BME280;41125;48.752;9.168;2023-09-19T03:11:37;96629.78;;;15.41;96.52
55263;BME280;41125;48.752;9.168;2023-09-19T03:12:08;96625.94;;;15.42;96.25
55263;BME280;41125;48.752;9.168;2023-09-19T03:12:39;96624.31;;;15.41;96.44
55263;BME280;41125;48.752;9.168;2023-09-19T03:13:12;96631.41;;;15.42;96.09